sensor_id;sensor_type;location;lat;lon;timestamp;temperature;humidity
35700;DHT22;21818;51.078;12.108;2022-08-02T00:02:18;20.60;85.10
35700;DHT22;21818;51.078;12.108;2022-08-02T00:04:45;20.60;85.20
35700;DHT22;21818;51.078;12.108;2022-08-02T00:07:11;20.60;85.20
35700;DHT22;21818;51.078;12.108;2022-08-02T00:09:36;20.60;85.30
35700;DHT22;21818;51.078;12.108;2022-08-02T00:12:03;20.60;85.20
35700;DHT22;21818;51.078;12.108;2022-08-02T00:14:28;20.60;85.10
35700;DHT22;21818;51.078;12.108;2022-08-02T00:16:54;20.60;85.30
35700;DHT22;21818;51.078;12.108;2022-08-02T00:19:20;20.50;85.40
35700;DHT22;21818;51.078;12.108;2022-08-02T00:21:45;20.40;85.70
35700;DHT22;21818;51.078;12.108;2022-08-02T00:24:11;20.40;86.10
35700;DHT22;21818;51.078;12.108;2022-08-02T00:26:37;20.30;86.50
35700;DHT22;21818;51.078;12.108;2022-08-02T00:29:03;20.30;86.40
35700;DHT22;21818;51.078;12.108;2022-08-02T00:31:28;20.50;85.80
35700;DHT22;21818;51.078;12.108;2022-08-02T00:33:54;20.70;85.40
35700;DHT22;21818;51.078;12.108;2022-08-02T00:36:19;20.70;85.10
35700;DHT22;21818;51.078;12.108;2022-08-02T00:38:45;20.60;85.50
35700;DHT22;21818;51.078;12.108;2022-08-02T00:41:15;20.50;85.60
35700;DHT22;21818;51.078;12.108;2022-08-02T00:43:42;20.40;85.90
35700;DHT22;21818;51.078;12.108;2022-08-02T00:46:08;20.40;86.30
35700;DHT22;21818;51.078;12.108;2022-08-02T00:48:34;20.40;86.00
35700;DHT22;21818;51.078;12.108;2022-08-02T00:51:01;20.50;85.90
35700;DHT22;21818;51.078;12.108;2022-08-02T00:53:26;20.70;85.60
35700;DHT22;21818;51.078;12.108;2022-08-02T00:55:52;20.90;85.10
35700;DHT22;21818;51.078;12.108;2022-08-02T00:58:18;21.00;84.60
35700;DHT22;21818;51.078;12.108;2022-08-02T01:00:43;21.10;84.40
35700;DHT22;21818;51.078;12.108;2022-08-02T01:03:09;21.10;84.50
35700;DHT22;21818;51.078;12.108;2022-08-02T01:05:34;20.90;84.90
35700;DHT22;21818;51.078;12.108;2022-08-02T01:08:01;20.60;85.90
35700;DHT22;21818;51.078;12.108;2022-08-02T01:10:27;20.50;86.40
35700;DHT22;21818;51.078;12.108;2022-08-02T01:12:52;20.40;86.80
35700;DHT22;21818;51.078;12.108;2022-08-02T01:15:18;20.50;86.60
35700;DHT22;21818;51.078;12.108;2022-08-02T01:26:22;20.30;87.10
35700;DHT22;21818;51.078;12.108;2022-08-02T01:34:20;20.10;87.80
35700;DHT22;21818;51.078;12.108;2022-08-02T01:36:51;20.00;87.90
35700;DHT22;21818;51.078;12.108;2022-08-02T01:39:20;19.90;88.30
35700;DHT22;21818;51.078;12.108;2022-08-02T01:41:48;19.90;88.30
35700;DHT22;21818;51.078;12.108;2022-08-02T01:44:14;19.90;88.30
35700;DHT22;21818;51.078;12.108;2022-08-02T01:46:41;19.80;88.50
35700;DHT22;21818;51.078;12.108;2022-08-02T01:49:14;19.60;89.30
35700;DHT22;21818;51.078;12.108;2022-08-02T01:51:40;19.60;89.50
35700;DHT22;21818;51.078;12.108;2022-08-02T01:54:29;19.60;89.40
35700;DHT22;21818;51.078;12.108;2022-08-02T01:56:56;19.50;89.90
35700;DHT22;21818;51.078;12.108;2022-08-02T01:59:24;19.50;90.40
35700;DHT22;21818;51.078;12.108;2022-08-02T02:01:51;19.40;89.90
35700;DHT22;21818;51.078;12.108;2022-08-02T02:04:19;19.40;90.10
35700;DHT22;21818;51.078;12.108;2022-08-02T02:06:46;19.40;90.10
35700;DHT22;21818;51.078;12.108;2022-08-02T02:09:14;19.50;89.90
35700;DHT22;21818;51.078;12.108;2022-08-02T02:11:42;19.60;89.70
35700;DHT22;21818;51.078;12.108;2022-08-02T02:14:10;19.70;89.10
35700;DHT22;21818;51.078;12.108;2022-08-02T02:16:37;19.70;88.70
35700;DHT22;21818;51.078;12.108;2022-08-02T02:19:06;19.70;88.50
35700;DHT22;21818;51.078;12.108;2022-08-02T02:21:33;19.70;88.70
35700;DHT22;21818;51.078;12.108;2022-08-02T02:23:59;19.60;88.80
35700;DHT22;21818;51.078;12.108;2022-08-02T02:26:25;19.60;88.80
35700;DHT22;21818;51.078;12.108;2022-08-02T02:28:53;19.60;88.90
35700;DHT22;21818;51.078;12.108;2022-08-02T02:31:20;19.60;89.00
35700;DHT22;21818;51.078;12.108;2022-08-02T02:33:49;19.50;89.00
35700;DHT22;21818;51.078;12.108;2022-08-02T02:36:17;19.60;89.10
35700;DHT22;21818;51.078;12.108;2022-08-02T02:38:43;19.50;89.80
35700;DHT22;21818;51.078;12.108;2022-08-02T02:41:10;19.40;89.40
35700;DHT22;21818;51.078;12.108;2022-08-02T02:43:37;19.40;89.40
35700;DHT22;21818;51.078;12.108;2022-08-02T02:46:04;19.30;90.00
35700;DHT22;21818;51.078;12.108;2022-08-02T02:48:30;19.30;90.00
35700;DHT22;21818;51.078;12.108;2022-08-02T02:50:57;19.30;89.80
35700;DHT22;21818;51.078;12.108;2022-08-02T02:53:24;19.30;90.00
35700;DHT22;21818;51.078;12.108;2022-08-02T02:55:51;19.20;90.20
35700;DHT22;21818;51.078;12.108;2022-08-02T02:58:17;19.20;90.20
35700;DHT22;21818;51.078;12.108;2022-08-02T03:00:43;19.10;90.30
35700;DHT22;21818;51.078;12.108;2022-08-02T03:03:28;19.10;90.20
35700;DHT22;21818;51.078;12.108;2022-08-02T03:05:55;19.10;90.40
35700;DHT22;21818;51.078;12.108;2022-08-02T03:08:20;19.00;90.60
35700;DHT22;21818;51.078;12.108;2022-08-02T03:10:46;18.90;90.80
35700;DHT22;21818;51.078;12.108;2022-08-02T03:13:12;18.80;90.90
35700;DHT22;21818;51.078;12.108;2022-08-02T03:15:39;18.90;90.80
35700;DHT22;21818;51.078;12.108;2022-08-02T03:18:05;19.00;90.70
35700;DHT22;21818;51.078;12.108;2022-08-02T03:20:33;19.00;90.70
35700;DHT22;21818;51.078;12.108;2022-08-02T03:22:58;18.90;90.90
35700;DHT22;21818;51.078;12.108;2022-08-02T03:25:24;18.80;91.00
35700;DHT22;21818;51.078;12.108;2022-08-02T03:27:50;18.80;91.00
35700;DHT22;21818;51.078;12.108;2022-08-02T03:30:16;18.80;91.10
35700;DHT22;21818;51.078;12.108;2022-08-02T03:32:44;18.80;91.00
35700;DHT22;21818;51.078;12.108;2022-08-02T03:35:13;18.90;91.00
35700;DHT22;21818;51.078;12.108;2022-08-02T03:37:39;18.90;91.00
35700;DHT22;21818;51.078;12.108;2022-08-02T03:40:07;18.90;91.00
35700;DHT22;21818;51.078;12.108;2022-08-02T03:42:33;18.90;90.90
35700;DHT22;21818;51.078;12.108;2022-08-02T03:45:01;19.00;90.80
35700;DHT22;21818;51.078;12.108;2022-08-02T03:47:27;19.00;90.70
35700;DHT22;21818;51.078;12.108;2022-08-02T03:49:54;19.00;91.00
35700;DHT22;21818;51.078;12.108;2022-08-02T03:52:21;18.90;90.80
35700;DHT22;21818;51.078;12.108;2022-08-02T03:54:47;18.90;90.70
35700;DHT22;21818;51.078;12.108;2022-08-02T03:57:13;19.10;90.60
35700;DHT22;21818;51.078;12.108;2022-08-02T03:59:43;19.00;90.50
35700;DHT22;21818;51.078;12.108;2022-08-02T04:02:10;19.00;90.60
35700;DHT22;21818;51.078;12.108;2022-08-02T04:04:36;19.00;90.50
35700;DHT22;21818;51.078;12.108;2022-08-02T04:07:02;19.00;90.70
35700;DHT22;21818;51.078;12.108;2022-08-02T04:09:27;18.90;90.50
35700;DHT22;21818;51.078;12.108;2022-08-02T04:11:53;18.90;90.50
35700;DHT22;21818;51.078;12.108;2022-08-02T04:14:19;19.00;90.50
35700;DHT22;21818;51.078;12.108;2022-08-02T04:16:51;19.10;90.30
35700;DHT22;21818;51.078;12.108;2022-08-02T04:19:39;19.10;90.20
35700;DHT22;21818;51.078;12.108;2022-08-02T04:22:13;19.10;90.20
35700;DHT22;21818;51.078;12.108;2022-08-02T04:24:46;19.20;90.00
35700;DHT22;21818;51.078;12.108;2022-08-02T04:27:14;19.20;90.00
35700;DHT22;21818;51.078;12.108;2022-08-02T04:29:40;19.20;90.00
35700;DHT22;21818;51.078;12.108;2022-08-02T04:32:06;19.20;90.00
35700;DHT22;21818;51.078;12.108;2022-08-02T04:34:32;19.10;89.90
35700;DHT22;21818;51.078;12.108;2022-08-02T04:36:59;19.10;89.80
35700;DHT22;21818;51.078;12.108;2022-08-02T04:39:25;19.00;90.00
35700;DHT22;21818;51.078;12.108;2022-08-02T04:41:51;19.00;90.00
35700;DHT22;21818;51.078;12.108;2022-08-02T04:44:17;19.00;90.10
35700;DHT22;21818;51.078;12.108;2022-08-02T04:46:43;18.90;90.20
35700;DHT22;21818;51.078;12.108;2022-08-02T04:49:09;18.90;90.30
35700;DHT22;21818;51.078;12.108;2022-08-02T04:51:40;19.00;90.20
35700;DHT22;21818;51.078;12.108;2022-08-02T04:54:07;19.10;90.00
35700;DHT22;21818;51.078;12.108;2022-08-02T04:56:33;19.10;89.90
35700;DHT22;21818;51.078;12.108;2022-08-02T04:58:58;19.20;89.60
35700;DHT22;21818;51.078;12.108;2022-08-02T05:01:24;19.20;89.50
35700;DHT22;21818;51.078;12.108;2022-08-02T05:03:50;19.20;89.20
35700;DHT22;21818;51.078;12.108;2022-08-02T05:06:15;19.40;88.90
35700;DHT22;21818;51.078;12.108;2022-08-02T05:08:44;19.40;88.50
35700;DHT22;21818;51.078;12.108;2022-08-02T05:11:09;19.40;88.40
35700;DHT22;21818;51.078;12.108;2022-08-02T05:13:35;19.40;88.20
35700;DHT22;21818;51.078;12.108;2022-08-02T05:16:01;19.50;88.40
35700;DHT22;21818;51.078;12.108;2022-08-02T05:18:29;19.50;87.70
35700;DHT22;21818;51.078;12.108;2022-08-02T05:20:55;19.60;87.40
35700;DHT22;21818;51.078;12.108;2022-08-02T05:23:20;19.60;87.40
35700;DHT22;21818;51.078;12.108;2022-08-02T05:25:46;19.70;87.20
35700;DHT22;21818;51.078;12.108;2022-08-02T05:28:11;19.70;87.00
35700;DHT22;21818;51.078;12.108;2022-08-02T05:30:37;19.70;86.90
35700;DHT22;21818;51.078;12.108;2022-08-02T05:33:03;19.80;86.60
35700;DHT22;21818;51.078;12.108;2022-08-02T05:35:29;19.80;86.20
35700;DHT22;21818;51.078;12.108;2022-08-02T05:37:55;19.90;86.20
35700;DHT22;21818;51.078;12.108;2022-08-02T05:40:21;19.90;85.80
35700;DHT22;21818;51.078;12.108;2022-08-02T05:42:46;20.00;85.70
35700;DHT22;21818;51.078;12.108;2022-08-02T05:45:12;20.10;85.30
35700;DHT22;21818;51.078;12.108;2022-08-02T05:47:38;20.10;84.80
35700;DHT22;21818;51.078;12.108;2022-08-02T05:50:06;20.10;84.40
35700;DHT22;21818;51.078;12.108;2022-08-02T05:52:43;20.10;84.30
35700;DHT22;21818;51.078;12.108;2022-08-02T05:55:17;20.10;84.00
35700;DHT22;21818;51.078;12.108;2022-08-02T05:58:02;20.40;83.90
35700;DHT22;21818;51.078;12.108;2022-08-02T06:00:31;20.40;83.50
35700;DHT22;21818;51.078;12.108;2022-08-02T06:05:32;20.40;83.50
35700;DHT22;21818;51.078;12.108;2022-08-02T06:07:58;20.40;83.30
35700;DHT22;21818;51.078;12.108;2022-08-02T06:10:26;20.40;83.40
35700;DHT22;21818;51.078;12.108;2022-08-02T06:15:29;20.50;82.70
35700;DHT22;21818;51.078;12.108;2022-08-02T06:17:56;20.50;82.70
35700;DHT22;21818;51.078;12.108;2022-08-02T06:20:23;20.60;82.70
35700;DHT22;21818;51.078;12.108;2022-08-02T06:22:49;20.60;82.60
35700;DHT22;21818;51.078;12.108;2022-08-02T06:25:15;20.70;82.30
35700;DHT22;21818;51.078;12.108;2022-08-02T06:27:40;20.70;82.30
35700;DHT22;21818;51.078;12.108;2022-08-02T06:30:09;20.70;82.10
35700;DHT22;21818;51.078;12.108;2022-08-02T06:32:35;20.80;82.00
35700;DHT22;21818;51.078;12.108;2022-08-02T06:35:02;20.80;81.80
35700;DHT22;21818;51.078;12.108;2022-08-02T06:37:43;20.80;81.70
35700;DHT22;21818;51.078;12.108;2022-08-02T06:42:48;20.90;80.80
35700;DHT22;21818;51.078;12.108;2022-08-02T06:45:14;20.90;80.70
35700;DHT22;21818;51.078;12.108;2022-08-02T06:47:40;21.00;80.60
35700;DHT22;21818;51.078;12.108;2022-08-02T06:50:06;21.10;80.50
35700;DHT22;21818;51.078;12.108;2022-08-02T06:52:32;21.00;80.10
35700;DHT22;21818;51.078;12.108;2022-08-02T06:54:59;21.00;80.00
35700;DHT22;21818;51.078;12.108;2022-08-02T06:57:27;21.10;79.90
35700;DHT22;21818;51.078;12.108;2022-08-02T06:59:53;21.10;79.90
35700;DHT22;21818;51.078;12.108;2022-08-02T07:02:18;21.10;79.90
35700;DHT22;21818;51.078;12.108;2022-08-02T07:04:44;21.10;79.80
35700;DHT22;21818;51.078;12.108;2022-08-02T07:07:10;21.10;79.70
35700;DHT22;21818;51.078;12.108;2022-08-02T07:09:35;21.00;79.30
35700;DHT22;21818;51.078;12.108;2022-08-02T07:12:01;21.00;79.60
35700;DHT22;21818;51.078;12.108;2022-08-02T07:14:27;21.00;79.60
35700;DHT22;21818;51.078;12.108;2022-08-02T07:16:52;21.10;79.50
35700;DHT22;21818;51.078;12.108;2022-08-02T07:19:18;21.00;79.30
35700;DHT22;21818;51.078;12.108;2022-08-02T07:21:43;21.00;79.40
35700;DHT22;21818;51.078;12.108;2022-08-02T07:24:09;21.10;79.20
35700;DHT22;21818;51.078;12.108;2022-08-02T07:26:34;21.20;79.90
35700;DHT22;21818;51.078;12.108;2022-08-02T07:29:00;21.20;78.90
35700;DHT22;21818;51.078;12.108;2022-08-02T07:31:25;21.20;78.80
35700;DHT22;21818;51.078;12.108;2022-08-02T07:33:51;21.30;79.00
35700;DHT22;21818;51.078;12.108;2022-08-02T07:36:17;21.30;78.80
35700;DHT22;21818;51.078;12.108;2022-08-02T07:38:42;21.40;78.60
35700;DHT22;21818;51.078;12.108;2022-08-02T07:41:08;21.50;78.50
35700;DHT22;21818;51.078;12.108;2022-08-02T07:43:34;21.50;78.40
35700;DHT22;21818;51.078;12.108;2022-08-02T07:45:59;21.60;78.00
35700;DHT22;21818;51.078;12.108;2022-08-02T07:48:25;21.70;78.10
35700;DHT22;21818;51.078;12.108;2022-08-02T07:50:50;21.70;78.00
35700;DHT22;21818;51.078;12.108;2022-08-02T07:53:16;21.70;78.00
35700;DHT22;21818;51.078;12.108;2022-08-02T07:55:41;21.80;78.00
35700;DHT22;21818;51.078;12.108;2022-08-02T07:58:08;21.80;77.90
35700;DHT22;21818;51.078;12.108;2022-08-02T08:00:34;22.00;77.60
35700;DHT22;21818;51.078;12.108;2022-08-02T08:03:00;22.10;77.90
35700;DHT22;21818;51.078;12.108;2022-08-02T08:05:25;22.10;77.20
35700;DHT22;21818;51.078;12.108;2022-08-02T08:07:51;22.10;77.30
35700;DHT22;21818;51.078;12.108;2022-08-02T08:10:16;22.20;77.20
35700;DHT22;21818;51.078;12.108;2022-08-02T08:12:42;22.30;76.90
35700;DHT22;21818;51.078;12.108;2022-08-02T08:15:08;22.40;76.70
35700;DHT22;21818;51.078;12.108;2022-08-02T08:17:33;22.50;76.60
35700;DHT22;21818;51.078;12.108;2022-08-02T08:20:01;22.50;76.40
35700;DHT22;21818;51.078;12.108;2022-08-02T08:22:26;22.60;76.30
35700;DHT22;21818;51.078;12.108;2022-08-02T08:24:52;22.60;76.20
35700;DHT22;21818;51.078;12.108;2022-08-02T08:27:18;22.70;76.10
35700;DHT22;21818;51.078;12.108;2022-08-02T08:29:46;22.70;75.90
35700;DHT22;21818;51.078;12.108;2022-08-02T08:32:12;22.70;75.80
35700;DHT22;21818;51.078;12.108;2022-08-02T08:34:38;22.80;75.70
35700;DHT22;21818;51.078;12.108;2022-08-02T08:37:04;22.80;75.60
35700;DHT22;21818;51.078;12.108;2022-08-02T08:39:29;22.80;75.50
35700;DHT22;21818;51.078;12.108;2022-08-02T08:41:55;22.90;75.40
35700;DHT22;21818;51.078;12.108;2022-08-02T08:44:21;22.90;75.30
35700;DHT22;21818;51.078;12.108;2022-08-02T08:46:48;22.90;75.30
35700;DHT22;21818;51.078;12.108;2022-08-02T08:49:22;22.90;75.20
35700;DHT22;21818;51.078;12.108;2022-08-02T08:51:50;22.90;75.10
35700;DHT22;21818;51.078;12.108;2022-08-02T08:54:18;23.00;75.10
35700;DHT22;21818;51.078;12.108;2022-08-02T08:56:46;23.00;75.00
35700;DHT22;21818;51.078;12.108;2022-08-02T08:59:12;23.00;74.90
35700;DHT22;21818;51.078;12.108;2022-08-02T09:01:37;23.00;74.90
35700;DHT22;21818;51.078;12.108;2022-08-02T09:04:03;23.00;74.80
35700;DHT22;21818;51.078;12.108;2022-08-02T09:06:29;23.00;74.80
35700;DHT22;21818;51.078;12.108;2022-08-02T09:08:54;23.00;74.70
35700;DHT22;21818;51.078;12.108;2022-08-02T09:11:24;23.00;74.70
35700;DHT22;21818;51.078;12.108;2022-08-02T09:13:52;23.00;74.60
35700;DHT22;21818;51.078;12.108;2022-08-02T09:16:37;23.10;74.70
35700;DHT22;21818;51.078;12.108;2022-08-02T09:19:20;23.10;74.60
35700;DHT22;21818;51.078;12.108;2022-08-02T09:21:49;23.10;74.50
35700;DHT22;21818;51.078;12.108;2022-08-02T09:24:22;23.10;74.50
35700;DHT22;21818;51.078;12.108;2022-08-02T09:26:49;23.20;74.50
35700;DHT22;21818;51.078;12.108;2022-08-02T09:29:15;23.10;74.40
35700;DHT22;21818;51.078;12.108;2022-08-02T09:31:41;23.10;74.30
35700;DHT22;21818;51.078;12.108;2022-08-02T09:34:07;23.20;74.30
35700;DHT22;21818;51.078;12.108;2022-08-02T09:36:44;23.20;74.20
35700;DHT22;21818;51.078;12.108;2022-08-02T09:39:12;23.20;74.20
35700;DHT22;21818;51.078;12.108;2022-08-02T09:41:40;23.20;74.20
35700;DHT22;21818;51.078;12.108;2022-08-02T09:44:08;23.20;74.10
35700;DHT22;21818;51.078;12.108;2022-08-02T09:46:42;23.20;74.10
35700;DHT22;21818;51.078;12.108;2022-08-02T09:49:14;23.20;74.00
35700;DHT22;21818;51.078;12.108;2022-08-02T09:51:51;23.30;74.10
35700;DHT22;21818;51.078;12.108;2022-08-02T09:54:20;23.20;74.00
35700;DHT22;21818;51.078;12.108;2022-08-02T09:56:59;23.30;74.00
35700;DHT22;21818;51.078;12.108;2022-08-02T09:59:26;23.30;73.90
35700;DHT22;21818;51.078;12.108;2022-08-02T10:01:53;23.30;73.90
35700;DHT22;21818;51.078;12.108;2022-08-02T10:04:21;23.30;73.90
35700;DHT22;21818;51.078;12.108;2022-08-02T10:06:48;23.30;73.80
35700;DHT22;21818;51.078;12.108;2022-08-02T10:09:14;23.30;73.80
35700;DHT22;21818;51.078;12.108;2022-08-02T10:11:40;23.30;73.70
35700;DHT22;21818;51.078;12.108;2022-08-02T10:14:07;23.30;73.70
35700;DHT22;21818;51.078;12.108;2022-08-02T10:16:36;23.30;73.70
35700;DHT22;21818;51.078;12.108;2022-08-02T10:19:02;23.30;73.60
35700;DHT22;21818;51.078;12.108;2022-08-02T10:21:34;23.40;73.60
35700;DHT22;21818;51.078;12.108;2022-08-02T10:24:07;23.40;73.60
35700;DHT22;21818;51.078;12.108;2022-08-02T10:26:33;23.40;73.60
35700;DHT22;21818;51.078;12.108;2022-08-02T10:28:59;23.40;73.50
35700;DHT22;21818;51.078;12.108;2022-08-02T10:31:29;23.40;73.50
35700;DHT22;21818;51.078;12.108;2022-08-02T10:33:59;23.40;73.50
35700;DHT22;21818;51.078;12.108;2022-08-02T10:36:30;23.40;73.40
35700;DHT22;21818;51.078;12.108;2022-08-02T10:38:58;23.40;73.30
35700;DHT22;21818;51.078;12.108;2022-08-02T10:41:49;23.40;73.30
35700;DHT22;21818;51.078;12.108;2022-08-02T10:44:26;23.40;73.20
35700;DHT22;21818;51.078;12.108;2022-08-02T10:47:17;23.40;73.20
35700;DHT22;21818;51.078;12.108;2022-08-02T10:49:59;23.50;73.30
35700;DHT22;21818;51.078;12.108;2022-08-02T10:52:28;23.50;73.20
35700;DHT22;21818;51.078;12.108;2022-08-02T10:57:23;23.50;73.40
35700;DHT22;21818;51.078;12.108;2022-08-02T10:59:57;23.50;73.10
35700;DHT22;21818;51.078;12.108;2022-08-02T11:02:36;23.50;73.10
35700;DHT22;21818;51.078;12.108;2022-08-02T11:07:43;23.50;72.90
35700;DHT22;21818;51.078;12.108;2022-08-02T11:10:28;23.50;72.90
35700;DHT22;21818;51.078;12.108;2022-08-02T11:13:12;23.50;72.90
35700;DHT22;21818;51.078;12.108;2022-08-02T11:21:27;23.60;72.80
35700;DHT22;21818;51.078;12.108;2022-08-02T11:23:54;23.60;72.80
35700;DHT22;21818;51.078;12.108;2022-08-02T11:28:59;23.60;72.70
35700;DHT22;21818;51.078;12.108;2022-08-02T11:31:25;23.60;72.70
35700;DHT22;21818;51.078;12.108;2022-08-02T11:33:52;23.60;72.60
35700;DHT22;21818;51.078;12.108;2022-08-02T11:36:19;23.60;72.60
35700;DHT22;21818;51.078;12.108;2022-08-02T11:38:45;23.70;72.60
35700;DHT22;21818;51.078;12.108;2022-08-02T11:41:20;23.60;72.50
35700;DHT22;21818;51.078;12.108;2022-08-02T11:43:46;23.60;72.50
35700;DHT22;21818;51.078;12.108;2022-08-02T11:46:14;23.70;72.50
35700;DHT22;21818;51.078;12.108;2022-08-02T11:48:41;23.70;72.50
35700;DHT22;21818;51.078;12.108;2022-08-02T11:51:15;23.70;72.50
35700;DHT22;21818;51.078;12.108;2022-08-02T11:53:54;23.70;72.40
35700;DHT22;21818;51.078;12.108;2022-08-02T11:56:30;23.70;72.30
35700;DHT22;21818;51.078;12.108;2022-08-02T12:01:30;23.70;72.30
35700;DHT22;21818;51.078;12.108;2022-08-02T12:03:55;23.70;72.30
35700;DHT22;21818;51.078;12.108;2022-08-02T12:06:29;23.70;72.20
35700;DHT22;21818;51.078;12.108;2022-08-02T12:09:13;23.70;72.20
35700;DHT22;21818;51.078;12.108;2022-08-02T12:11:39;23.70;72.20
35700;DHT22;21818;51.078;12.108;2022-08-02T12:14:06;23.70;72.10
35700;DHT22;21818;51.078;12.108;2022-08-02T12:16:34;23.80;72.70
35700;DHT22;21818;51.078;12.108;2022-08-02T12:19:20;23.80;72.10
35700;DHT22;21818;51.078;12.108;2022-08-02T12:22:16;23.80;72.10
35700;DHT22;21818;51.078;12.108;2022-08-02T12:24:45;23.80;72.00
35700;DHT22;21818;51.078;12.108;2022-08-02T12:27:27;23.90;72.10
35700;DHT22;21818;51.078;12.108;2022-08-02T12:29:58;23.80;72.00
35700;DHT22;21818;51.078;12.108;2022-08-02T12:32:25;23.90;72.00
35700;DHT22;21818;51.078;12.108;2022-08-02T12:35:20;23.90;71.90
35700;DHT22;21818;51.078;12.108;2022-08-02T12:37:48;23.90;72.40
35700;DHT22;21818;51.078;12.108;2022-08-02T12:40:31;23.90;71.90
35700;DHT22;21818;51.078;12.108;2022-08-02T12:42:59;23.90;71.80
35700;DHT22;21818;51.078;12.108;2022-08-02T12:45:28;23.90;71.80
35700;DHT22;21818;51.078;12.108;2022-08-02T12:47:56;23.90;71.70
35700;DHT22;21818;51.078;12.108;2022-08-02T12:50:30;24.00;71.70
35700;DHT22;21818;51.078;12.108;2022-08-02T12:53:16;24.00;71.70
35700;DHT22;21818;51.078;12.108;2022-08-02T12:55:55;24.00;71.60
35700;DHT22;21818;51.078;12.108;2022-08-02T12:58:21;24.00;71.60
35700;DHT22;21818;51.078;12.108;2022-08-02T13:00:54;24.00;71.60
35700;DHT22;21818;51.078;12.108;2022-08-02T13:03:20;24.00;71.50
35700;DHT22;21818;51.078;12.108;2022-08-02T13:05:46;24.00;71.50
35700;DHT22;21818;51.078;12.108;2022-08-02T13:08:12;24.10;72.10
35700;DHT22;21818;51.078;12.108;2022-08-02T13:10:38;24.10;71.50
35700;DHT22;21818;51.078;12.108;2022-08-02T13:13:04;24.10;71.50
35700;DHT22;21818;51.078;12.108;2022-08-02T13:15:29;24.10;71.40
35700;DHT22;21818;51.078;12.108;2022-08-02T13:17:55;24.20;71.40
35700;DHT22;21818;51.078;12.108;2022-08-02T13:20:21;24.10;71.30
35700;DHT22;21818;51.078;12.108;2022-08-02T13:22:46;24.20;71.40
35700;DHT22;21818;51.078;12.108;2022-08-02T13:25:12;24.20;71.30
35700;DHT22;21818;51.078;12.108;2022-08-02T13:27:37;24.20;71.30
35700;DHT22;21818;51.078;12.108;2022-08-02T13:30:05;24.20;71.20
35700;DHT22;21818;51.078;12.108;2022-08-02T13:32:31;24.20;71.20
35700;DHT22;21818;51.078;12.108;2022-08-02T13:34:57;24.20;71.20
35700;DHT22;21818;51.078;12.108;2022-08-02T13:37:23;24.30;71.20
35700;DHT22;21818;51.078;12.108;2022-08-02T13:39:49;24.30;71.10
35700;DHT22;21818;51.078;12.108;2022-08-02T13:42:15;24.30;71.10
35700;DHT22;21818;51.078;12.108;2022-08-02T13:44:41;24.30;71.00
35700;DHT22;21818;51.078;12.108;2022-08-02T13:47:07;24.30;71.00
35700;DHT22;21818;51.078;12.108;2022-08-02T13:49:36;24.30;70.90
35700;DHT22;21818;51.078;12.108;2022-08-02T13:52:03;24.30;70.90
35700;DHT22;21818;51.078;12.108;2022-08-02T13:54:28;24.30;70.80
35700;DHT22;21818;51.078;12.108;2022-08-02T13:56:54;24.40;70.80
35700;DHT22;21818;51.078;12.108;2022-08-02T13:59:20;24.40;70.70
35700;DHT22;21818;51.078;12.108;2022-08-02T14:01:45;24.40;70.60
35700;DHT22;21818;51.078;12.108;2022-08-02T14:04:11;24.40;70.60
35700;DHT22;21818;51.078;12.108;2022-08-02T14:06:36;24.50;70.70
35700;DHT22;21818;51.078;12.108;2022-08-02T14:09:02;24.50;70.70
35700;DHT22;21818;51.078;12.108;2022-08-02T14:11:28;24.50;70.60
35700;DHT22;21818;51.078;12.108;2022-08-02T14:13:55;24.50;70.50
35700;DHT22;21818;51.078;12.108;2022-08-02T14:16:21;24.50;70.50
35700;DHT22;21818;51.078;12.108;2022-08-02T14:18:46;24.60;70.50
35700;DHT22;21818;51.078;12.108;2022-08-02T14:21:12;24.50;70.30
35700;DHT22;21818;51.078;12.108;2022-08-02T14:23:37;24.60;70.40
35700;DHT22;21818;51.078;12.108;2022-08-02T14:26:03;24.60;70.30
35700;DHT22;21818;51.078;12.108;2022-08-02T14:28:30;24.60;70.20
35700;DHT22;21818;51.078;12.108;2022-08-02T14:30:55;24.60;70.20
35700;DHT22;21818;51.078;12.108;2022-08-02T14:33:21;24.60;70.20
35700;DHT22;21818;51.078;12.108;2022-08-02T14:35:47;24.60;70.10
35700;DHT22;21818;51.078;12.108;2022-08-02T14:38:13;24.70;70.10
35700;DHT22;21818;51.078;12.108;2022-08-02T14:40:38;24.70;70.00
35700;DHT22;21818;51.078;12.108;2022-08-02T14:43:04;24.70;70.00
35700;DHT22;21818;51.078;12.108;2022-08-02T14:45:29;24.70;69.90
35700;DHT22;21818;51.078;12.108;2022-08-02T14:47:56;24.70;69.90
35700;DHT22;21818;51.078;12.108;2022-08-02T14:50:22;24.80;69.90
35700;DHT22;21818;51.078;12.108;2022-08-02T14:52:48;24.80;69.90
35700;DHT22;21818;51.078;12.108;2022-08-02T14:55:15;24.80;70.30
35700;DHT22;21818;51.078;12.108;2022-08-02T14:57:40;24.80;69.70
35700;DHT22;21818;51.078;12.108;2022-08-02T15:00:07;24.80;69.70
35700;DHT22;21818;51.078;12.108;2022-08-02T15:02:34;24.80;69.60
35700;DHT22;21818;51.078;12.108;2022-08-02T15:04:59;24.80;69.60
35700;DHT22;21818;51.078;12.108;2022-08-02T15:07:25;24.90;69.60
35700;DHT22;21818;51.078;12.108;2022-08-02T15:09:50;24.90;69.60
35700;DHT22;21818;51.078;12.108;2022-08-02T15:12:16;24.90;69.50
35700;DHT22;21818;51.078;12.108;2022-08-02T15:14:43;24.90;69.40
35700;DHT22;21818;51.078;12.108;2022-08-02T15:17:09;25.00;69.50
35700;DHT22;21818;51.078;12.108;2022-08-02T15:19:35;25.00;69.40
35700;DHT22;21818;51.078;12.108;2022-08-02T15:22:01;25.00;69.40
35700;DHT22;21818;51.078;12.108;2022-08-02T15:24:26;25.00;69.30
35700;DHT22;21818;51.078;12.108;2022-08-02T15:26:52;25.00;69.30
35700;DHT22;21818;51.078;12.108;2022-08-02T15:29:18;25.00;69.30
35700;DHT22;21818;51.078;12.108;2022-08-02T15:31:44;25.00;69.20
35700;DHT22;21818;51.078;12.108;2022-08-02T15:34:10;25.10;69.30
35700;DHT22;21818;51.078;12.108;2022-08-02T15:36:36;25.10;69.20
35700;DHT22;21818;51.078;12.108;2022-08-02T15:39:01;25.10;69.10
35700;DHT22;21818;51.078;12.108;2022-08-02T15:41:27;25.10;69.10
35700;DHT22;21818;51.078;12.108;2022-08-02T15:43:52;25.10;69.10
35700;DHT22;21818;51.078;12.108;2022-08-02T15:46:18;25.10;69.10
35700;DHT22;21818;51.078;12.108;2022-08-02T15:48:44;25.10;69.00
35700;DHT22;21818;51.078;12.108;2022-08-02T15:51:09;25.10;69.00
35700;DHT22;21818;51.078;12.108;2022-08-02T15:53:35;25.20;69.00
35700;DHT22;21818;51.078;12.108;2022-08-02T15:56:01;25.20;68.90
35700;DHT22;21818;51.078;12.108;2022-08-02T15:58:26;25.20;68.90